FAHS/HDS METAR and TAF weather

Enter ICAO airport designator
Station Type Date Time Source
FAHS METAR 2019/10/15 08:00 UTC NOAA

FAHS 150800Z AUTO 01007KT //// // ////// 25/16 Q1022


Station Type Date Time Source
FAHS Decoded METAR 2019/10/15 08:00 UTC NOAA

Hoedspruit, South Africa (FAHS) 24-22S 031-02E 500M
Oct 15, 2019 - 04:00 AM EDT / 2019.10.15 0800 UTC
Wind: from the N (010 degrees) at 8 MPH (7 KT):0
Temperature: 77 F (25 C)
Dew Point: 60 F (16 C)
Relative Humidity: 57%
Pressure (altimeter): 30.18 in. Hg (1022 hPa)
ob: FAHS 150800Z AUTO 01007KT //// // ////// 25/16 Q1022
cycle: 8

Station Type Date Time Source
FAHS TAF 2017/05/23 04:01 UTC NOAA

TAF FAHS 230300Z 2304/2315 VRB02KT CAVOK TX29/2312ZTN12/2304Z

Example: see airport list